createdAt,value
2023-05-03T00:00:30.771Z,3.69
2023-05-03T00:01:35.363Z,3.44
2023-05-03T00:02:39.689Z,3.37
2023-05-03T00:03:43.505Z,3.37
2023-05-03T00:04:47.873Z,3.56
2023-05-03T00:05:52.446Z,3.81
2023-05-03T00:06:56.512Z,3.94
2023-05-03T00:08:01.120Z,3.56
2023-05-03T00:09:05.699Z,3.31
2023-05-03T00:10:10.044Z,3.31
2023-05-03T00:11:13.859Z,3.37
2023-05-03T00:12:18.194Z,3.44
2023-05-03T00:13:22.802Z,3.19
2023-05-03T00:14:27.123Z,3.12
2023-05-03T00:15:31.469Z,3.31
2023-05-03T00:16:35.801Z,3.50
2023-05-03T00:17:40.165Z,3.56
2023-05-03T00:18:44.737Z,3.62
2023-05-03T00:19:44.335Z,3.37
2023-05-03T00:20:48.929Z,3.31
2023-05-03T00:21:53.274Z,3.31
2023-05-03T00:23:05.316Z,3.31
2023-05-03T00:24:01.963Z,3.44
2023-05-03T00:25:06.016Z,3.50
2023-05-03T00:26:10.364Z,3.50
2023-05-03T00:27:14.684Z,3.50
2023-05-03T00:28:19.029Z,3.12
2023-05-03T00:29:23.898Z,2.87
2023-05-03T00:30:27.953Z,3.06
2023-05-03T00:31:32.297Z,3.12
2023-05-03T00:32:36.450Z,3.00
2023-05-03T00:33:40.692Z,2.94
2023-05-03T00:34:45.291Z,2.81
2023-05-03T00:35:49.631Z,2.87
2023-05-03T00:36:53.959Z,3.06
2023-05-03T00:37:58.032Z,3.19
2023-05-03T00:39:02.888Z,3.25
2023-05-03T00:40:06.968Z,3.25
2023-05-03T00:41:11.081Z,2.75
2023-05-03T00:42:15.385Z,2.75
2023-05-03T00:43:19.720Z,2.87
2023-05-03T00:44:24.332Z,3.00
2023-05-03T00:45:28.409Z,3.06
2023-05-03T00:46:32.736Z,2.87
2023-05-03T00:47:37.121Z,2.62
2023-05-03T00:48:41.945Z,2.62
2023-05-03T00:49:41.515Z,2.56
2023-05-03T00:50:46.370Z,2.62
2023-05-03T00:51:50.450Z,2.56
2023-05-03T00:52:54.563Z,2.56
2023-05-03T00:53:58.870Z,2.62
2023-05-03T00:55:03.241Z,2.69
2023-05-03T00:56:07.807Z,2.69
2023-05-03T00:57:11.883Z,2.75
2023-05-03T00:58:16.494Z,2.75
2023-05-03T00:59:20.863Z,2.56
2023-05-03T01:00:25.173Z,2.44
2023-05-03T01:01:29.317Z,2.00
2023-05-03T01:02:33.981Z,2.12
2023-05-03T01:03:38.247Z,2.37
2023-05-03T01:04:43.343Z,2.44
2023-05-03T01:05:46.601Z,2.50
2023-05-03T01:06:51.272Z,2.44
2023-05-03T01:07:55.544Z,2.31
2023-05-03T01:09:00.145Z,2.44
2023-05-03T01:10:04.573Z,2.44
2023-05-03T01:11:11.374Z,2.50
2023-05-03T01:12:10.497Z,2.56
2023-05-03T01:13:14.858Z,2.44
2023-05-03T01:14:19.171Z,2.44
2023-05-03T01:15:23.514Z,2.31
2023-05-03T01:16:27.867Z,2.31
2023-05-03T01:17:32.519Z,2.31
2023-05-03T01:18:37.027Z,2.31
2023-05-03T01:19:36.660Z,2.25
2023-05-03T01:20:41.545Z,2.19
2023-05-03T01:21:45.845Z,1.87
2023-05-03T01:22:49.679Z,1.81
2023-05-03T01:23:54.033Z,1.94
2023-05-03T01:24:58.391Z,2.06
2023-05-03T01:26:02.707Z,2.12
2023-05-03T01:27:07.303Z,2.19
2023-05-03T01:28:11.654Z,2.25
2023-05-03T01:29:16.004Z,2.25
2023-05-03T01:30:20.617Z,2.19
2023-05-03T01:31:24.956Z,2.31
2023-05-03T01:32:29.020Z,2.12
2023-05-03T01:33:33.109Z,2.06
2023-05-03T01:34:37.407Z,1.94
2023-05-03T01:35:42.000Z,1.81
2023-05-03T01:36:46.180Z,1.94
2023-05-03T01:37:50.710Z,2.12
2023-05-03T01:38:54.760Z,2.25
2023-05-03T01:39:59.377Z,2.31
2023-05-03T01:41:03.091Z,2.25
2023-05-03T01:42:05.230Z,2.31
2023-05-03T01:43:09.576Z,2.19
2023-05-03T01:44:13.916Z,2.19
2023-05-03T01:45:17.973Z,2.19
2023-05-03T01:46:22.434Z,2.12
2023-05-03T01:47:26.679Z,2.00
2023-05-03T01:48:31.263Z,1.94
2023-05-03T01:49:31.433Z,2.06
2023-05-03T01:50:35.523Z,1.94
2023-05-03T01:51:39.914Z,1.87
2023-05-03T01:52:44.451Z,1.94
2023-05-03T01:53:48.819Z,2.00
2023-05-03T01:54:53.148Z,2.00
2023-05-03T01:55:57.470Z,2.00
2023-05-03T01:57:01.568Z,2.06
2023-05-03T01:58:05.907Z,1.81
2023-05-03T01:59:10.227Z,1.81
2023-05-03T02:00:14.859Z,1.81
2023-05-03T02:01:19.241Z,1.81
2023-05-03T02:02:23.790Z,1.87
2023-05-03T02:03:27.620Z,1.87
2023-05-03T02:04:32.297Z,1.56
2023-05-03T02:05:36.537Z,1.56
2023-05-03T02:06:40.658Z,1.37
2023-05-03T02:07:45.242Z,1.31
2023-05-03T02:08:50.078Z,1.50
2023-05-03T02:09:54.681Z,1.56
2023-05-03T02:10:59.026Z,1.56
2023-05-03T02:12:02.838Z,1.62
2023-05-03T02:13:07.196Z,1.62
2023-05-03T02:14:11.764Z,1.69
2023-05-03T02:15:16.115Z,1.62
2023-05-03T02:16:20.477Z,1.69
2023-05-03T02:17:24.556Z,1.69
2023-05-03T02:18:29.126Z,1.81
2023-05-03T02:19:29.325Z,1.75
2023-05-03T02:20:33.710Z,1.69
2023-05-03T02:21:38.265Z,1.62
2023-05-03T02:22:42.614Z,1.62
2023-05-03T02:23:46.681Z,1.56
2023-05-03T02:24:51.033Z,1.37
2023-05-03T02:25:55.102Z,1.44
2023-05-03T02:26:59.441Z,1.56
2023-05-03T02:28:03.774Z,1.56
2023-05-03T02:29:08.109Z,1.56
2023-05-03T02:30:12.741Z,1.44
2023-05-03T02:31:17.363Z,1.44
2023-05-03T02:32:21.634Z,1.37
2023-05-03T02:33:25.735Z,1.37
2023-05-03T02:34:30.090Z,1.44
2023-05-03T02:35:34.424Z,1.50
2023-05-03T02:36:38.563Z,1.50
2023-05-03T02:37:42.837Z,1.50
2023-05-03T02:38:47.442Z,1.44
2023-05-03T02:39:52.036Z,1.44
2023-05-03T02:40:56.134Z,1.37
2023-05-03T02:42:00.757Z,1.19
2023-05-03T02:43:04.816Z,1.12
2023-05-03T02:44:09.147Z,1.12
2023-05-03T02:45:13.497Z,1.25
2023-05-03T02:46:17.588Z,1.25
2023-05-03T02:47:22.170Z,1.19
2023-05-03T02:48:26.496Z,1.19
2023-05-03T02:49:26.639Z,1.19
2023-05-03T02:50:30.980Z,1.12
2023-05-03T02:51:35.570Z,1.12
2023-05-03T02:52:39.941Z,1.12
2023-05-03T02:53:43.992Z,1.12
2023-05-03T02:54:48.065Z,1.12
2023-05-03T02:55:52.409Z,1.12
2023-05-03T02:56:57.009Z,1.12
2023-05-03T02:58:01.119Z,1.12
2023-05-03T02:59:03.064Z,1.00
2023-05-03T03:00:10.397Z,0.94
2023-05-03T03:01:14.841Z,0.88
2023-05-03T03:02:19.069Z,1.00
2023-05-03T03:03:23.445Z,1.12
2023-05-03T03:04:27.492Z,1.19
2023-05-03T03:05:32.075Z,1.25
2023-05-03T03:06:36.468Z,1.06
2023-05-03T03:07:40.504Z,1.06
2023-05-03T03:08:45.123Z,1.00
2023-05-03T03:09:49.688Z,1.06
2023-05-03T03:10:53.857Z,1.06
2023-05-03T03:11:58.181Z,1.06
2023-05-03T03:13:02.530Z,0.94
2023-05-03T03:14:06.877Z,0.88
2023-05-03T03:15:10.954Z,0.94
2023-05-03T03:16:15.405Z,1.00
2023-05-03T03:17:19.894Z,1.00
2023-05-03T03:18:24.211Z,1.00
2023-05-03T03:19:24.359Z,1.00
2023-05-03T03:20:28.689Z,0.75
2023-05-03T03:21:33.278Z,0.81
2023-05-03T03:22:37.109Z,0.81
2023-05-03T03:23:41.697Z,0.81
2023-05-03T03:24:46.091Z,0.81
2023-05-03T03:25:50.135Z,0.69
2023-05-03T03:26:54.742Z,0.69
2023-05-03T03:27:59.085Z,0.75
2023-05-03T03:29:03.158Z,0.81
2023-05-03T03:30:08.079Z,0.81
2023-05-03T03:31:12.121Z,0.81
2023-05-03T03:32:16.201Z,0.75
2023-05-03T03:33:23.651Z,0.62
2023-05-03T03:34:24.873Z,0.62
2023-05-03T03:35:29.215Z,0.56
2023-05-03T03:36:33.821Z,0.56
2023-05-03T03:37:37.880Z,0.56
2023-05-03T03:38:42.478Z,0.62
2023-05-03T03:39:47.078Z,0.69
2023-05-03T03:40:51.210Z,0.69
2023-05-03T03:41:55.494Z,0.62
2023-05-03T03:42:59.587Z,0.62
2023-05-03T03:44:04.188Z,0.62
2023-05-03T03:45:08.533Z,0.62
2023-05-03T03:46:12.883Z,0.44
2023-05-03T03:47:16.991Z,0.37
2023-05-03T03:48:21.796Z,0.44
2023-05-03T03:49:22.251Z,0.37
2023-05-03T03:50:26.593Z,0.37
2023-05-03T03:51:31.169Z,0.31
2023-05-03T03:52:35.268Z,0.37
2023-05-03T03:53:39.609Z,0.37
2023-05-03T03:54:43.960Z,0.44
2023-05-03T03:55:48.276Z,0.56
2023-05-03T03:56:52.666Z,0.50
2023-05-03T03:57:56.712Z,0.56
2023-05-03T03:59:01.317Z,0.56
2023-05-03T04:00:06.064Z,0.62
2023-05-03T04:01:09.981Z,0.56
2023-05-03T04:02:14.390Z,0.62
2023-05-03T04:03:18.467Z,0.62
2023-05-03T04:04:22.800Z,0.56
2023-05-03T04:05:27.099Z,0.50
2023-05-03T04:06:31.437Z,0.44
2023-05-03T04:07:35.768Z,0.37
2023-05-03T04:08:40.358Z,0.31
2023-05-03T04:09:44.444Z,0.37
2023-05-03T04:10:49.053Z,0.37
2023-05-03T04:11:53.378Z,0.31
2023-05-03T04:12:57.501Z,0.25
2023-05-03T04:14:01.821Z,0.25
2023-05-03T04:15:06.147Z,0.06
2023-05-03T04:16:10.741Z,0.00
2023-05-03T04:17:15.152Z,0.00
2023-05-03T04:18:19.680Z,0.13
2023-05-03T04:19:19.846Z,0.25
2023-05-03T04:20:23.905Z,0.37
2023-05-03T04:21:28.259Z,0.31
2023-05-03T04:22:32.589Z,0.44
2023-05-03T04:23:36.923Z,0.44
2023-05-03T04:24:49.140Z,0.44
2023-05-03T04:25:45.585Z,0.50
2023-05-03T04:26:49.932Z,0.56
2023-05-03T04:27:54.277Z,0.56
2023-05-03T04:28:58.631Z,0.56
2023-05-03T04:30:03.650Z,0.62
2023-05-03T04:31:07.308Z,0.69
2023-05-03T04:32:11.369Z,0.69
2023-05-03T04:33:15.714Z,0.62
2023-05-03T04:34:20.313Z,0.69
2023-05-03T04:35:24.383Z,0.75
2023-05-03T04:36:28.739Z,0.81
2023-05-03T04:37:33.323Z,0.88
2023-05-03T04:38:37.677Z,0.81
2023-05-03T04:39:42.015Z,0.88
2023-05-03T04:40:46.090Z,0.88
2023-05-03T04:41:50.684Z,0.69
2023-05-03T04:42:54.767Z,0.62
2023-05-03T04:43:59.358Z,0.62
2023-05-03T04:45:03.451Z,0.69
2023-05-03T04:46:08.088Z,0.50
2023-05-03T04:47:12.623Z,0.62
2023-05-03T04:48:16.971Z,0.75
2023-05-03T04:49:22.061Z,0.88
2023-05-03T04:50:26.137Z,1.00
2023-05-03T04:51:30.472Z,1.19
2023-05-03T04:52:34.835Z,1.37
2023-05-03T04:53:39.400Z,1.62
2023-05-03T04:54:43.759Z,1.75
2023-05-03T04:58:39.701Z,2.06
2023-05-03T04:59:44.836Z,2.19
2023-05-03T05:00:49.582Z,2.25
2023-05-03T05:01:53.820Z,2.25
2023-05-03T05:02:58.220Z,2.37
2023-05-03T05:04:02.441Z,2.44
2023-05-03T05:05:06.501Z,2.50
2023-05-03T05:06:10.851Z,2.62
2023-05-03T05:07:15.440Z,2.62
2023-05-03T05:08:19.525Z,2.69
2023-05-03T05:09:24.118Z,2.75
2023-05-03T05:10:28.711Z,2.75
2023-05-03T05:11:33.025Z,2.81
2023-05-03T05:12:36.849Z,2.87
2023-05-03T05:13:41.189Z,2.81
2023-05-03T05:14:45.790Z,2.87
2023-05-03T05:15:49.852Z,2.75
2023-05-03T05:16:54.528Z,2.81
2023-05-03T05:17:58.942Z,2.87
2023-05-03T05:19:02.853Z,2.94
2023-05-03T05:20:07.476Z,3.00
2023-05-03T05:21:11.522Z,3.00
2023-05-03T05:22:15.852Z,3.12
2023-05-03T05:23:20.200Z,3.25
2023-05-03T05:24:24.786Z,3.31
2023-05-03T05:25:29.105Z,3.31
2023-05-03T05:26:33.461Z,3.31
2023-05-03T05:27:37.589Z,3.37
2023-05-03T05:28:37.673Z,3.50
2023-05-03T05:29:41.996Z,3.50
2023-05-03T05:30:46.820Z,3.62
2023-05-03T05:31:50.920Z,3.62
2023-05-03T05:32:55.207Z,3.69
2023-05-03T05:33:59.337Z,3.75
2023-05-03T05:35:03.908Z,3.75
2023-05-03T05:36:08.250Z,3.81
2023-05-03T05:37:12.622Z,3.75
2023-05-03T05:38:16.919Z,3.81
2023-05-03T05:39:20.985Z,3.69
2023-05-03T05:40:25.838Z,3.69
2023-05-03T05:41:29.908Z,3.69
2023-05-03T05:42:33.997Z,3.56
2023-05-03T05:43:38.328Z,3.56
2023-05-03T05:44:42.670Z,3.69
2023-05-03T05:45:46.989Z,3.75
2023-05-03T05:46:51.365Z,3.75
2023-05-03T05:47:55.719Z,3.87
2023-05-03T05:49:00.363Z,4.25
2023-05-03T05:50:15.055Z,4.44
2023-05-03T05:52:14.170Z,4.87
2023-05-03T05:53:13.026Z,4.81
2023-05-03T05:54:17.544Z,4.69
2023-05-03T05:55:22.541Z,4.81
2023-05-03T05:56:26.381Z,5.06
2023-05-03T05:57:30.422Z,5.37
2023-05-03T05:58:34.776Z,5.56
2023-05-03T05:59:39.139Z,5.75
2023-05-03T06:00:43.779Z,5.81
2023-05-03T06:01:48.138Z,5.94
2023-05-03T06:02:52.316Z,5.94
2023-05-03T06:03:57.048Z,6.12
2023-05-03T06:05:01.525Z,6.00
2023-05-03T06:06:05.263Z,6.06
2023-05-03T06:07:09.807Z,6.00
2023-05-03T06:08:14.154Z,6.25
2023-05-03T06:09:24.829Z,6.37
2023-05-03T06:10:22.564Z,6.25
2023-05-03T06:11:27.146Z,6.37
2023-05-03T06:12:31.523Z,6.50
2023-05-03T06:13:35.865Z,6.56
2023-05-03T06:14:46.259Z,6.62
2023-05-03T06:15:44.269Z,6.69
2023-05-03T06:16:48.920Z,6.56
2023-05-03T06:17:53.258Z,6.62
2023-05-03T06:18:57.552Z,6.87
2023-05-03T06:20:01.832Z,6.87
2023-05-03T06:21:06.269Z,7.06
2023-05-03T06:22:06.082Z,7.19
2023-05-03T06:23:16.909Z,7.31
2023-05-03T06:24:15.010Z,7.31
2023-05-03T06:25:19.357Z,7.31
2023-05-03T06:26:23.682Z,7.19
2023-05-03T06:27:28.028Z,7.12
2023-05-03T06:28:32.378Z,7.37
2023-05-03T06:29:36.467Z,7.62
2023-05-03T06:30:40.845Z,7.62
2023-05-03T06:31:45.371Z,7.62
2023-05-03T06:32:49.824Z,7.75
2023-05-03T06:33:54.109Z,8.00
2023-05-03T06:34:58.439Z,8.06
2023-05-03T06:36:02.519Z,8.13
2023-05-03T06:37:06.900Z,8.25
2023-05-03T06:38:11.204Z,8.19
2023-05-03T06:39:15.799Z,8.06
2023-05-03T06:40:20.142Z,7.94
2023-05-03T06:41:24.203Z,8.06
2023-05-03T06:42:28.806Z,8.44
2023-05-03T06:43:33.146Z,8.44
2023-05-03T06:44:37.495Z,8.63
2023-05-03T06:45:41.562Z,8.63
2023-05-03T06:46:46.221Z,8.81
2023-05-03T06:47:50.560Z,9.00
2023-05-03T06:48:54.613Z,9.13
2023-05-03T06:49:59.224Z,9.19
2023-05-03T06:51:03.537Z,9.31
2023-05-03T06:52:03.420Z,9.06
2023-05-03T06:53:08.121Z,9.25
2023-05-03T06:54:12.599Z,9.19
2023-05-03T06:55:16.958Z,9.13
2023-05-03T06:56:21.016Z,9.38
2023-05-03T06:57:26.465Z,9.75
2023-05-03T06:58:29.425Z,9.81
2023-05-03T06:59:33.783Z,9.75
2023-05-03T07:00:38.354Z,9.69
2023-05-03T07:01:42.782Z,9.81
2023-05-03T07:02:47.366Z,9.31
2023-05-03T07:03:51.740Z,9.13
2023-05-03T07:04:55.437Z,9.13
2023-05-03T07:05:59.774Z,9.38
2023-05-03T07:07:04.500Z,9.56
2023-05-03T07:08:08.472Z,9.88
2023-05-03T07:09:12.858Z,9.75
2023-05-03T07:10:17.434Z,9.56
2023-05-03T07:11:21.448Z,9.50
2023-05-03T07:12:26.047Z,9.50
2023-05-03T07:13:30.617Z,9.38
2023-05-03T07:14:34.722Z,9.00
2023-05-03T07:15:39.034Z,9.13
2023-05-03T07:16:43.164Z,9.25
2023-05-03T07:17:47.451Z,9.56
2023-05-03T07:18:51.791Z,9.88
2023-05-03T07:19:56.105Z,9.88
2023-05-03T07:21:00.457Z,10.25
2023-05-03T07:22:00.836Z,10.44
2023-05-03T07:23:05.139Z,10.50
2023-05-03T07:24:09.741Z,10.69
2023-05-03T07:25:13.875Z,10.69
2023-05-03T07:26:18.201Z,10.50
2023-05-03T07:27:22.479Z,10.31
2023-05-03T07:28:26.571Z,10.63
2023-05-03T07:29:30.916Z,10.75
2023-05-03T07:30:35.263Z,10.88
2023-05-03T07:31:39.627Z,10.94
2023-05-03T07:32:44.575Z,10.81
2023-05-03T07:33:48.986Z,10.31
2023-05-03T07:34:52.909Z,9.94
2023-05-03T07:35:56.986Z,9.94
2023-05-03T07:37:01.332Z,10.00
2023-05-03T07:38:05.670Z,10.25
2023-05-03T07:39:10.287Z,10.25
2023-05-03T07:40:14.643Z,10.06
2023-05-03T07:41:18.998Z,9.94
2023-05-03T07:42:23.286Z,9.75
2023-05-03T07:43:27.654Z,9.81
2023-05-03T07:44:30.928Z,10.44
2023-05-03T07:45:36.067Z,10.81
2023-05-03T07:46:40.663Z,10.56
2023-05-03T07:47:45.030Z,10.31
2023-05-03T07:48:49.083Z,10.25
2023-05-03T07:49:53.690Z,10.38
2023-05-03T07:50:58.014Z,10.94
2023-05-03T07:51:58.262Z,11.31
2023-05-03T07:53:02.615Z,10.94
2023-05-03T07:54:07.185Z,10.75
2023-05-03T07:55:11.030Z,11.12
2023-05-03T07:56:15.663Z,11.25
2023-05-03T07:57:20.113Z,11.63
2023-05-03T07:58:38.858Z,11.81
2023-05-03T07:59:28.390Z,11.63
2023-05-03T08:00:32.724Z,11.25
2023-05-03T08:01:37.054Z,11.12
2023-05-03T08:02:41.632Z,10.94
2023-05-03T08:03:46.181Z,10.81
2023-05-03T08:04:50.404Z,11.12
2023-05-03T08:05:54.650Z,11.44
2023-05-03T08:06:58.991Z,11.25
2023-05-03T08:08:03.073Z,11.00
2023-05-03T08:09:07.710Z,10.75
2023-05-03T08:10:11.765Z,10.69
2023-05-03T08:11:16.361Z,10.94
2023-05-03T08:12:20.702Z,10.88
2023-05-03T08:13:25.155Z,10.63
2023-05-03T08:14:29.115Z,11.06
2023-05-03T08:15:33.756Z,11.12
2023-05-03T08:16:37.810Z,11.06
2023-05-03T08:17:44.951Z,11.56
2023-05-03T08:18:44.332Z,11.88
2023-05-03T08:22:32.853Z,12.81
2023-05-03T08:23:37.179Z,11.88
2023-05-03T08:24:41.786Z,11.50
2023-05-03T08:25:46.118Z,11.31
2023-05-03T08:26:50.767Z,11.31
2023-05-03T08:27:55.061Z,11.19
2023-05-03T08:28:59.176Z,11.56
2023-05-03T08:30:03.827Z,11.63
2023-05-03T08:31:07.618Z,11.38
2023-05-03T08:32:12.191Z,11.38
2023-05-03T08:33:16.548Z,11.94
2023-05-03T08:34:20.609Z,12.37
2023-05-03T08:35:25.471Z,12.13
2023-05-03T08:36:29.558Z,12.31
2023-05-03T08:37:33.880Z,12.06
2023-05-03T08:38:37.996Z,11.56
2023-05-03T08:39:42.307Z,11.12
2023-05-03T08:40:46.655Z,11.00
2023-05-03T08:41:51.276Z,11.56
2023-05-03T08:42:55.622Z,12.13
2023-05-03T08:43:59.995Z,11.88
2023-05-03T08:45:04.425Z,11.38
2023-05-03T08:46:08.696Z,11.06
2023-05-03T08:47:12.999Z,11.06
2023-05-03T08:48:17.107Z,11.25
2023-05-03T08:49:21.470Z,11.31
2023-05-03T08:50:25.765Z,11.44
2023-05-03T08:51:29.879Z,11.44
2023-05-03T08:52:30.487Z,11.56
2023-05-03T08:53:34.578Z,12.13
2023-05-03T08:54:39.157Z,12.44
2023-05-03T08:55:43.525Z,12.56
2023-05-03T08:56:47.861Z,12.63
2023-05-03T08:57:52.203Z,12.44
2023-05-03T08:58:56.270Z,12.06
2023-05-03T09:00:01.068Z,12.25
2023-05-03T09:01:04.984Z,12.31
2023-05-03T09:02:09.367Z,12.31
2023-05-03T09:03:13.721Z,12.56
2023-05-03T09:04:18.469Z,12.56
2023-05-03T09:05:22.791Z,12.31
2023-05-03T09:06:27.208Z,12.56
2023-05-03T09:07:27.705Z,12.94
2023-05-03T09:08:34.802Z,13.00
2023-05-03T09:09:39.381Z,12.81
2023-05-03T09:10:43.519Z,13.06
2023-05-03T09:11:47.854Z,13.19
2023-05-03T09:12:52.194Z,13.13
2023-05-03T09:13:56.524Z,13.38
2023-05-03T09:15:01.421Z,13.25
2023-05-03T09:16:05.257Z,13.13
2023-05-03T09:17:09.864Z,13.00
2023-05-03T09:18:14.146Z,12.63
2023-05-03T09:19:18.495Z,12.37
2023-05-03T09:20:22.968Z,12.13
2023-05-03T09:21:27.138Z,12.63
2023-05-03T09:22:27.275Z,13.00
2023-05-03T09:23:32.038Z,13.19
2023-05-03T09:24:35.943Z,12.94
2023-05-03T09:25:40.022Z,12.81
2023-05-03T09:26:44.861Z,13.06
2023-05-03T09:27:48.685Z,13.13
2023-05-03T09:28:53.291Z,13.31
2023-05-03T09:29:57.640Z,12.81
2023-05-03T09:31:01.973Z,12.81
2023-05-03T09:32:06.242Z,13.06
2023-05-03T09:33:10.619Z,13.56
2023-05-03T09:34:14.998Z,13.69
2023-05-03T09:35:19.586Z,13.94
2023-05-03T09:36:23.696Z,14.06
2023-05-03T09:37:28.005Z,14.00
2023-05-03T09:38:32.093Z,14.19
2023-05-03T09:39:36.700Z,13.44
2023-05-03T09:40:41.063Z,13.44
2023-05-03T09:41:45.130Z,13.31
2023-05-03T09:42:49.758Z,13.38
2023-05-03T09:43:53.838Z,13.31
2023-05-03T09:44:58.437Z,13.75
2023-05-03T09:46:02.552Z,14.13
2023-05-03T09:47:06.926Z,14.31
2023-05-03T09:48:11.281Z,13.94
2023-05-03T09:49:17.494Z,13.62
2023-05-03T09:50:16.997Z,13.81
2023-05-03T09:51:21.092Z,14.13
2023-05-03T09:52:21.209Z,13.62
2023-05-03T09:53:25.812Z,13.50
2023-05-03T09:54:30.160Z,13.81
2023-05-03T09:55:34.482Z,14.25
2023-05-03T09:56:38.558Z,14.25
2023-05-03T09:57:43.435Z,14.25
2023-05-03T09:58:47.496Z,14.44
2023-05-03T09:59:51.598Z,14.50
2023-05-03T10:00:56.257Z,14.06
2023-05-03T10:02:00.579Z,13.44
2023-05-03T10:03:04.668Z,13.25
2023-05-03T10:04:09.276Z,13.75
2023-05-03T10:05:13.344Z,14.00
2023-05-03T10:06:18.192Z,14.38
2023-05-03T10:07:22.499Z,14.31
2023-05-03T10:08:26.358Z,14.63
2023-05-03T10:09:30.735Z,14.63
2023-05-03T10:10:35.326Z,14.38
2023-05-03T10:11:39.662Z,14.63
2023-05-03T10:12:44.010Z,14.06
2023-05-03T10:13:48.077Z,13.44
2023-05-03T10:14:52.695Z,13.19
2023-05-03T10:15:57.328Z,13.69
2023-05-03T10:17:01.674Z,14.13
2023-05-03T10:18:05.750Z,13.88
2023-05-03T10:19:11.946Z,14.06
2023-05-03T10:20:14.388Z,14.75
2023-05-03T10:21:18.499Z,14.81
2023-05-03T10:22:18.845Z,14.94
2023-05-03T10:23:23.181Z,15.19
2023-05-03T10:24:27.504Z,15.50
2023-05-03T10:25:31.837Z,15.19
2023-05-03T10:26:35.906Z,15.13
2023-05-03T10:27:40.493Z,15.25
2023-05-03T10:28:44.579Z,15.38
2023-05-03T10:29:49.480Z,15.31
2023-05-03T10:30:53.536Z,15.25
2023-05-03T10:31:57.669Z,15.38
2023-05-03T10:33:02.220Z,15.13
2023-05-03T10:34:06.499Z,14.81
2023-05-03T10:35:10.670Z,14.63
2023-05-03T10:36:15.440Z,14.94
2023-05-03T10:37:19.838Z,15.19
2023-05-03T10:38:23.932Z,14.94
2023-05-03T10:39:28.014Z,15.06
2023-05-03T10:40:32.628Z,15.19
2023-05-03T10:41:36.950Z,15.50
2023-05-03T10:42:41.040Z,15.38
2023-05-03T10:43:45.644Z,15.13
2023-05-03T10:44:49.744Z,15.06
2023-05-03T10:45:54.586Z,15.13
2023-05-03T10:46:58.396Z,15.25
2023-05-03T10:48:03.050Z,15.38
2023-05-03T10:49:07.078Z,15.13
2023-05-03T10:50:11.430Z,14.38
2023-05-03T10:51:15.758Z,14.31
2023-05-03T10:52:16.218Z,14.50
2023-05-03T10:53:20.571Z,14.81
2023-05-03T10:54:24.892Z,15.13
2023-05-03T10:55:29.234Z,15.56
2023-05-03T10:56:33.558Z,15.69
2023-05-03T10:57:39.558Z,15.44
2023-05-03T10:58:42.239Z,15.06
2023-05-03T10:59:46.304Z,14.81
2023-05-03T11:00:50.892Z,14.87
2023-05-03T11:01:55.126Z,15.13
2023-05-03T11:02:59.412Z,14.63
2023-05-03T11:04:03.878Z,14.63
2023-05-03T11:05:08.537Z,14.44
2023-05-03T11:06:12.911Z,14.50
2023-05-03T11:07:17.003Z,14.50
2023-05-03T11:08:21.067Z,14.87
2023-05-03T11:09:25.730Z,15.25
2023-05-03T11:10:29.992Z,15.69
2023-05-03T11:11:34.085Z,16.12
2023-05-03T11:12:38.660Z,15.94
2023-05-03T11:13:42.813Z,16.19
2023-05-03T11:14:47.346Z,16.06
2023-05-03T11:15:51.679Z,15.44
2023-05-03T11:16:56.184Z,15.56
2023-05-03T11:18:00.208Z,15.63
2023-05-03T11:19:04.719Z,15.94
2023-05-03T11:20:09.042Z,16.19
2023-05-03T11:21:13.149Z,16.19
2023-05-03T11:22:13.606Z,15.94
2023-05-03T11:23:17.929Z,16.25
2023-05-03T11:24:22.000Z,16.31
2023-05-03T11:25:26.634Z,16.37
2023-05-03T11:26:31.183Z,16.50
2023-05-03T11:27:35.524Z,16.25
2023-05-03T11:28:39.626Z,16.31
2023-05-03T11:29:43.945Z,16.12
2023-05-03T11:30:48.018Z,15.63
2023-05-03T11:31:52.432Z,15.50
2023-05-03T11:32:56.783Z,15.88
2023-05-03T11:34:01.299Z,15.75
2023-05-03T11:35:06.142Z,15.69
2023-05-03T11:36:10.079Z,15.56
2023-05-03T11:37:14.062Z,16.06
2023-05-03T11:38:18.665Z,16.19
2023-05-03T11:39:23.021Z,16.31
2023-05-03T11:40:27.112Z,16.56
2023-05-03T11:41:31.764Z,16.69
2023-05-03T11:42:36.076Z,16.69
2023-05-03T11:43:40.162Z,16.37
2023-05-03T11:44:45.047Z,16.44
2023-05-03T11:45:49.414Z,15.81
2023-05-03T11:46:53.319Z,15.31
2023-05-03T11:47:57.890Z,15.38
2023-05-03T11:49:01.910Z,15.38
2023-05-03T11:50:06.256Z,15.56
2023-05-03T11:51:10.849Z,15.31
2023-05-03T11:52:11.146Z,15.44
2023-05-03T11:53:15.527Z,15.50
2023-05-03T11:54:26.075Z,15.75
2023-05-03T11:55:24.250Z,16.00
2023-05-03T11:56:28.591Z,16.12
2023-05-03T11:57:33.068Z,16.00
2023-05-03T11:58:37.037Z,15.88
2023-05-03T11:59:41.403Z,16.06
2023-05-03T12:00:45.769Z,16.44
2023-05-03T12:01:50.428Z,16.37
2023-05-03T12:02:54.648Z,16.31
2023-05-03T12:03:59.359Z,16.00
2023-05-03T12:05:04.074Z,15.69
2023-05-03T12:06:08.442Z,15.56
2023-05-03T12:07:13.454Z,15.75
2023-05-03T12:08:16.934Z,15.81
2023-05-03T12:09:22.193Z,16.12
2023-05-03T12:10:26.896Z,16.44
2023-05-03T12:11:32.188Z,16.56
2023-05-03T12:12:36.084Z,16.69
2023-05-03T12:13:38.585Z,16.87
2023-05-03T12:14:39.460Z,16.75
2023-05-03T12:15:43.938Z,16.81
2023-05-03T12:16:50.296Z,16.81
2023-05-03T12:17:54.877Z,17.06
2023-05-03T12:18:57.087Z,16.69
2023-05-03T12:20:33.110Z,16.81
2023-05-03T12:21:31.105Z,16.87
2023-05-03T12:22:23.824Z,17.06
2023-05-03T12:23:10.763Z,16.87
2023-05-03T12:24:15.081Z,16.81
2023-05-03T12:25:20.444Z,16.56
2023-05-03T12:26:22.990Z,16.56
2023-05-03T12:27:28.234Z,16.62
2023-05-03T12:28:31.633Z,16.69
2023-05-03T12:29:36.148Z,16.50
2023-05-03T12:30:40.780Z,16.31
2023-05-03T12:31:44.793Z,16.06
2023-05-03T12:32:50.270Z,16.37
2023-05-03T12:34:57.550Z,16.25
2023-05-03T12:36:04.243Z,16.00
2023-05-03T12:37:06.710Z,15.75
2023-05-03T12:38:11.018Z,15.56
2023-05-03T12:40:33.407Z,15.81
2023-05-03T12:41:51.969Z,16.00
2023-05-03T12:42:28.828Z,16.31
2023-05-03T12:43:32.130Z,16.62
2023-05-03T12:44:36.717Z,16.87
2023-05-03T12:45:41.655Z,16.94
2023-05-03T12:46:46.040Z,17.00
2023-05-03T12:47:50.296Z,17.06
2023-05-03T12:48:54.656Z,16.81
2023-05-03T12:49:59.987Z,16.25
2023-05-03T12:51:18.479Z,16.50
2023-05-03T12:53:09.421Z,16.56
2023-05-03T12:54:11.534Z,16.75
2023-05-03T12:56:24.161Z,17.12
2023-05-03T12:57:24.861Z,17.12
2023-05-03T13:00:37.886Z,16.31
2023-05-03T13:04:05.036Z,16.37
2023-05-03T13:04:58.709Z,16.56
2023-05-03T13:05:59.547Z,16.75
2023-05-03T13:07:07.470Z,16.94
2023-05-03T13:08:09.806Z,17.19
2023-05-03T13:09:19.254Z,17.31
2023-05-03T13:11:20.802Z,17.19
2023-05-03T13:12:25.267Z,16.94
2023-05-03T13:13:29.632Z,16.56
2023-05-03T13:14:33.701Z,16.19
2023-05-03T13:15:38.555Z,16.56
2023-05-03T13:16:42.691Z,16.81
2023-05-03T13:17:48.500Z,17.12
2023-05-03T13:18:51.053Z,17.44
2023-05-03T13:19:55.408Z,17.50
2023-05-03T13:20:59.762Z,17.56
2023-05-03T13:22:13.143Z,17.50
2023-05-03T13:23:10.003Z,17.00
2023-05-03T13:24:14.343Z,17.00
2023-05-03T13:25:18.651Z,17.12
2023-05-03T13:26:22.784Z,17.00
2023-05-03T13:27:26.850Z,16.87
2023-05-03T13:28:31.199Z,17.06
2023-05-03T13:29:35.765Z,17.19
2023-05-03T13:30:40.143Z,17.19
2023-05-03T13:31:44.291Z,17.19
2023-05-03T13:32:48.896Z,17.00
2023-05-03T13:33:53.152Z,16.62
2023-05-03T13:34:57.249Z,16.56
2023-05-03T13:36:01.860Z,16.62
2023-05-03T13:37:06.171Z,16.87
2023-05-03T13:38:10.260Z,17.12
2023-05-03T13:39:14.863Z,17.31
2023-05-03T13:40:18.970Z,16.94
2023-05-03T13:41:23.528Z,16.81
2023-05-03T13:42:28.145Z,16.75
2023-05-03T13:43:31.955Z,16.62
2023-05-03T13:44:36.308Z,16.56
2023-05-03T13:45:40.971Z,16.62
2023-05-03T13:46:44.988Z,16.62
2023-05-03T13:48:12.550Z,16.75
2023-05-03T13:48:53.788Z,16.87
2023-05-03T13:49:58.230Z,17.00
2023-05-03T13:51:02.866Z,17.19
2023-05-03T13:52:08.223Z,17.31
2023-05-03T13:53:12.462Z,17.31
2023-05-03T13:54:16.408Z,17.25
2023-05-03T13:55:20.993Z,17.25
2023-05-03T13:56:25.108Z,17.00
2023-05-03T13:57:29.698Z,17.00
2023-05-03T13:58:34.013Z,17.19
2023-05-03T13:59:38.604Z,17.12
2023-05-03T14:00:42.950Z,16.81
2023-05-03T14:01:47.107Z,17.06
2023-05-03T14:02:51.396Z,17.12
2023-05-03T14:03:55.568Z,17.44
2023-05-03T14:04:59.840Z,17.44
2023-05-03T14:06:04.175Z,17.25
2023-05-03T14:07:08.801Z,17.25
2023-05-03T14:08:13.177Z,17.19
2023-05-03T14:09:17.738Z,17.06
2023-05-03T14:10:21.815Z,17.06
2023-05-03T14:11:26.159Z,17.06
2023-05-03T14:12:30.557Z,17.31
2023-05-03T14:13:47.591Z,17.56
2023-05-03T14:14:39.193Z,17.69
2023-05-03T14:15:43.598Z,17.87
2023-05-03T14:16:49.911Z,17.87
2023-05-03T14:17:49.790Z,17.62